Warners (210, 211, 212) Station Data

Red Flag Warning: No
Fire Weather Zone: 258
SDGE Region: Ramona
Lat/Lon: 33.248/-116.697

Observations

Time Wind Speed/Gust Temp(F) RH Fuel Moist Fuel Temp(F) Dewpt(F) Tmax(F) Tmin(F) Accum Precip 10-min Precip SL Press(mb)
6/22 4:50am 80 4 G 5 60° 40% - - 36° 68.1° 59.3° - - -
6/22 4:40am 93 2 G 5 60° 43% - - 38° 68.1° 59.3° - - -
6/22 4:30am 125 0 G 1 61° 44% - - 39° 68.1° 59.3° - - -
6/22 4:20am 111 1 G 3 60° 42% - - 37° 68.1° 59.3° - - -
6/22 4:10am 89 4 G 5 60° 40% - - 36° 68.1° 59.3° - - -
6/22 4:00am 119 2 G 3 61° 41% - - 37° 68.1° 60.3° - - -
6/22 3:50am 100 1 G 2 62° 42% - - 38° 68.1° 61.2° - - -
6/22 3:40am 107 2 G 3 62° 40% - - 38° 68.1° 61.5° - - -
6/22 3:30am 89 2 G 3 63° 39% - - 37° 68.1° 61.5° - - -
6/22 3:20am 75 3 G 4 62° 39% - - 37° 68.1° 61.5° - - -
6/22 3:10am 72 4 G 5 63° 40% - - 38° 68.1° 61.5° - - -
6/22 3:00am 81 2 G 4 63° 42% - - 39° 68.1° 61.5° - - -
6/22 2:50am 108 2 G 4 62° 43% - - 39° 68.1° 61.5° - - -
6/22 2:40am 98 3 G 5 62° 42% - - 39° 68.1° 61.5° - - -
6/22 2:30am 95 3 G 4 62° 43% - - 40° 68.1° 61.7° - - -
6/22 2:20am 82 2 G 4 64° 40% - - 39° 68.1° 62.4° - - -
6/22 2:10am 70 2 G 3 64° 38% - - 38° 68.1° 62.4° - - -
6/22 2:00am 91 3 G 4 64° 39% - - 38° 68.1° 62.4° - - -
6/22 1:50am 80 5 G 7 63° 42% - - 40° 68.1° 62.4° - - -
6/22 1:40am 78 5 G 6 65° 38% - - 39° 68.1° 63.4° - - -
6/22 1:30am 88 4 G 5 66° 40% - - 41° 68.1° 63.4° - - -
6/22 1:20am 75 5 G 6 64° 43% - - 41° 68.1° 63.4° - - -
6/22 1:10am 81 5 G 7 66° 39% - - 40° 68.1° 64.8° - - -
6/22 1:00am 101 2 G 4 67° 38% - - 40° 68.1° 65.6° - - -
6/22 12:50am 99 2 G 4 66° 40% - - 41° 68.1° 65.6° - - -
6/22 12:40am 80 6 G 7 66° 42% - - 42° 68.1° 65.6° - - -
6/22 12:30am 81 5 G 6 67° 41% - - 43° 68.1° 66.5° - - -
6/22 12:20am 97 3 G 5 67° 40% - - 42° 68.1° 66.9° - - -
6/22 12:10am 99 4 G 4 67° 41% - - 43° 68.1° 67° - - -
6/22 12:00am 94 4 G 5 68° 40% - - 43° 101.5° 57° - - -
6/21 11:50pm 87 4 G 6 69° 40% - - 43° 101.5° 57° - - -
6/21 11:40pm 83 5 G 6 69° 40% - - 44° 101.5° 57° - - -
6/21 11:30pm 90 4 G 5 70° 39% - - 44° 101.5° 57° - - -
6/21 11:20pm 79 5 G 5 70° 41% - - 45° 101.5° 57° - - -
6/21 11:10pm 82 6 G 8 69° 43% - - 46° 101.5° 57° - - -
6/21 11:00pm 80 6 G 8 71° 41% - - 46° 101.5° 57° - - -
6/21 10:50pm 69 5 G 7 73° 38% - - 46° 101.5° 57° - - -
6/21 10:40pm 75 5 G 6 72° 39% - - 46° 101.5° 57° - - -
6/21 10:30pm 80 4 G 6 73° 38% - - 46° 101.5° 57° - - -
6/21 10:20pm 85 4 G 5 73° 37% - - 46° 101.5° 57° - - -
6/21 10:10pm 79 4 G 6 74° 36% - - 46° 101.5° 57° - - -
6/21 10:00pm 92 3 G 4 74° 35% - - 45° 101.5° 57° - - -
6/21 9:50pm 116 3 G 5 75° 37% - - 47° 101.5° 57° - - -
6/21 9:40pm 129 2 G 4 77° 34% - - 46° 101.5° 57° - - -
6/21 9:30pm 213 0 G 2 77° 32% - - 45° 101.5° 57° - - -
6/21 9:20pm 45 2 G 3 78° 35% - - 48° 101.5° 57° - - -
6/21 9:10pm 94 2 G 5 79° 35% - - 49° 101.5° 57° - - -
6/21 9:00pm 164 4 G 6 79° 35% - - 50° 101.5° 57° - - -
6/21 8:50pm 209 5 G 7 80° 34% - - 49° 101.5° 57° - - -
6/21 8:40pm 216 7 G 8 82° 32% - - 49° 101.5° 57° - - -
6/21 8:30pm 214 8 G 10 83° 30% - - 48° 101.5° 57° - - -
6/21 8:20pm 219 7 G 10 83° 30% - - 48° 101.5° 57° - - -
6/21 8:10pm 227 6 G 8 82° 30% - - 48° 101.5° 57° - - -
6/21 8:00pm 225 6 G 7 83° 31% - - 49° 101.5° 57° - - -
6/21 7:50pm 219 7 G 9 83° 31% - - 50° 101.5° 57° - - -
6/21 7:40pm 221 7 G 9 85° 30% - - 49° 101.5° 57° - - -
6/21 7:30pm 236 7 G 9 86° 28% - - 49° 101.5° 57° - - -
6/21 7:20pm 245 7 G 11 87° 27% - - 49° 101.5° 57° - - -
6/21 7:10pm 252 8 G 11 87° 26% - - 48° 101.5° 57° - - -
6/21 7:00pm 249 10 G 15 88° 25% - - 48° 101.5° 57° - - -
6/21 6:50pm 258 11 G 14 89° 24% - - 47° 101.5° 57° - - -
6/21 6:40pm 267 9 G 13 89° 24% - - 48° 101.5° 57° - - -
6/21 6:30pm 257 10 G 15 90° 23% - - 48° 101.5° 57° - - -
6/21 6:20pm 257 12 G 18 91° 23% - - 48° 101.5° 57° - - -
6/21 6:10pm 254 13 G 16 91° 23% - - 48° 101.5° 57° - - -
6/21 6:00pm 246 12 G 16 92° 23% - - 48° 101.5° 57° - - -
6/21 5:50pm 238 13 G 16 93° 22% - - 48° 101.5° 57° - - -
6/21 5:40pm 244 14 G 18 93° 21% - - 48° 101.5° 57° - - -
6/21 5:30pm 249 14 G 17 94° 21% - - 48° 101.5° 57° - - -
6/21 5:20pm 253 13 G 18 94° 20% - - 47° 101.5° 57° - - -
6/21 5:10pm 254 12 G 17 95° 18% - - 45° 101.5° 57° - - -
6/21 5:00pm 245 12 G 17 96° 17% - - 44° 101.5° 57° - - -
6/21 4:50pm 238 11 G 17 96° 16% - - 42° 101.5° 57° - - -
6/21 4:40pm 243 11 G 16 96° 16% - - 44° 101.5° 57° - - -
6/21 4:30pm 239 11 G 17 97° 15% - - 41° 101.5° 57° - - -
6/21 4:20pm 249 11 G 16 97° 14% - - 39° 101.5° 57° - - -
6/21 4:10pm 251 10 G 16 98° 12% - - 37° 101.5° 57° - - -
6/21 4:00pm 258 10 G 14 98° 12% - - 37° 101.5° 57° - - -
6/21 3:50pm 239 9 G 15 99° 10% - - 31° 101.5° 57° - - -
6/21 3:40pm 235 10 G 16 99° 10% - - 32° 101.5° 57° - - -
6/21 3:30pm 231 10 G 15 99° 10% - - 33° 101.5° 57° - - -
6/21 3:20pm 233 10 G 16 99° 9% - - 31° 101.5° 57° - - -
6/21 3:10pm 237 10 G 19 99° 9% - - 30° 101.5° 57° - - -
6/21 3:00pm 229 10 G 15 99° 9% - - 31° 101.5° 57° - - -
6/21 2:50pm 234 9 G 16 100° 9% - - 32° 101.5° 57° - - -
6/21 2:40pm 241 10 G 15 100° 9% - - 29° 101.5° 57° - - -
6/21 2:30pm 256 9 G 15 100° 9% - - 30° 101.5° 57° - - -
6/21 2:20pm 245 11 G 17 100° 8% - - 28° 101.5° 57° - - -
6/21 2:10pm 247 11 G 17 99° 7% - - 25° 101.5° 57° - - -
6/21 2:00pm 266 10 G 17 99° 7% - - 24° 101.5° 57° - - -
6/21 1:50pm 257 10 G 16 100° 6% - - 22° 101.5° 57° - - -
6/21 1:40pm 232 11 G 16 100° 5% - - 17° 101.5° 57° - - -
6/21 1:30pm 207 11 G 16 99° 5% - - 17° 101.5° 57° - - -
6/21 1:20pm 224 11 G 16 101° 5% - - 16° 101.5° 57° - - -
6/21 1:10pm 234 10 G 16 100° 5% - - 18° 101.5° 57° - - -
6/21 1:00pm 224 10 G 16 100° 5% - - 18° 101.5° 57° - - -
6/21 12:50pm 245 11 G 20 100° 5% - - 18° 100.6° 57° - - -
6/21 12:40pm 261 10 G 17 99° 6% - - 20° 100.6° 57° - - -
6/21 12:30pm 242 10 G 17 100° 6% - - 21° 100.6° 57° - - -
6/21 12:20pm 262 9 G 15 100° 6% - - 19° 100.4° 57° - - -
6/21 12:10pm 237 7 G 18 100° 6% - - 22° 100.4° 57° - - -
6/21 12:00pm 250 7 G 12 99° 6% - - 22° 99.7° 57° - - -
6/21 11:50am 277 5 G 11 98° 7% - - 22° 99.6° 57° - - -
6/21 11:40am 252 5 G 10 99° 7% - - 23° 99.5° 57° - - -
6/21 11:30am 237 4 G 8 98° 7% - - 23° 98.7° 57° - - -
6/21 11:20am 251 5 G 11 98° 7% - - 23° 98.6° 57° - - -
6/21 11:10am 192 4 G 9 97° 7% - - 21° 98.1° 57° - - -
6/21 11:00am 195 3 G 7 97° 7% - - 23° 98.1° 57° - - -
6/21 10:50am 164 2 G 6 96° 7% - - 24° 97.8° 57° - - -
6/21 10:40am 262 3 G 5 96° 7% - - 23° 96.2° 57° - - -
6/21 10:30am 301 2 G 5 94° 9% - - 28° 94.7° 57° - - -
6/21 10:20am 241 2 G 5 94° 11% - - 30° 94.3° 57° - - -
6/21 10:10am 261 2 G 4 92° 12% - - 32° 93.1° 57° - - -
6/21 10:00am 348 1 G 5 90° 13% - - 33° 91.1° 57° - - -
6/21 9:50am 283 2 G 4 89° 14% - - 33° 89.8° 57° - - -
6/21 9:40am 233 1 G 4 88° 14% - - 33° 89° 57° - - -
6/21 9:30am 233 1 G 4 86° 17% - - 35° 86.5° 57° - - -
6/21 9:20am 236 1 G 4 84° 18% - - 36° 85° 57° - - -
6/21 9:10am 184 1 G 4 81° 21% - - 38° 82.2° 57° - - -
6/21 9:00am 207 1 G 3 80° 22% - - 38° 80.7° 57° - - -
6/21 8:50am 239 1 G 3 78° 24% - - 38° 78.9° 57° - - -
6/21 8:40am 273 2 G 3 77° 26% - - 39° 78° 57° - - -
6/21 8:30am 293 2 G 3 75° 27% - - 39° 75.9° 57° - - -
6/21 8:20am 267 1 G 3 75° 28% - - 40° 75.2° 57° - - -
6/21 8:10am 204 0 G 2 74° 30% - - 40° 74.5° 57° - - -
6/21 8:00am 284 1 G 2 71° 32% - - 40° 72.9° 57° - - -
6/21 7:50am 344 0 G 2 71° 33% - - 40° 71.9° 57° - - -
6/21 7:40am 289 0 G 2 69° 36% - - 41° 71.9° 57° - - -
6/21 7:30am 288 0 G 1 66° 40% - - 41° 71.9° 57° - - -
6/21 7:20am 129 1 G 2 65° 41% - - 41° 71.9° 57° - - -
6/21 7:10am 30 1 G 2 64° 42% - - 41° 71.9° 57° - - -
6/21 7:00am 43 0 G 1 63° 47% - - 42° 71.9° 57° - - -
6/21 6:50am 123 0 G 2 60° 51% - - 42° 71.9° 57° - - -
6/21 6:40am 332 1 G 2 58° 55% - - 42° 71.9° 57° - - -
6/21 6:30am 304 2 G 3 57° 55% - - 41° 71.9° 57° - - -
6/21 6:20am 310 2 G 4 59° 48% - - 40° 71.9° 57.5° - - -
6/21 6:10am 78 6 G 8 61° 43% - - 39° 71.9° 57.5° - - -
6/21 6:00am 70 8 G 9 62° 44% - - 40° 71.9° 57.5° - - -
6/21 5:50am 76 7 G 8 62° 47% - - 41° 71.9° 57.5° - - -
6/21 5:40am 78 6 G 8 61° 54% - - 44° 71.9° 57.5° - - -
6/21 5:30am 79 6 G 8 58° 57% - - 43° 71.9° 57.5° - - -
6/21 5:20am 129 2 G 4 60° 56% - - 44° 71.9° 58.7° - - -
6/21 5:10am 158 0 G 1 60° 58% - - 45° 71.9° 58.8° - - -
6/21 5:00am 298 0 G 1 59° 54% - - 42° 71.9° 58.8° - - -
6/21 4:50am 325 0 G 2 61° 49% - - 41° 71.9° 59.3° - - -
6/21 4:40am 40 0 G 3 62° 50% - - 44° 71.9° 61.1° - - -
6/21 4:30am 310 1 G 2 64° 49% - - 44° 71.9° 61.1° - - -
6/21 4:20am 333 1 G 2 64° 50% - - 45° 71.9° 61.1° - - -
6/21 4:10am 97 2 G 4 63° 53% - - 45° 71.9° 61.1° - - -
6/21 4:00am 95 4 G 5 62° 52% - - 44° 71.9° 61.1° - - -
6/21 3:50am 87 5 G 6 62° 53% - - 44° 71.9° 61.1° - - -
6/21 3:40am 162 2 G 3 63° 52% - - 45° 71.9° 62.7° - - -
6/21 3:30am 161 2 G 3 64° 50% - - 45° 71.9° 63° - - -
6/21 3:20am 104 2 G 3 64° 48% - - 44° 71.9° 63° - - -
6/21 3:10am 119 2 G 4 64° 48% - - 44° 71.9° 63.9° - - -
6/21 3:00am 96 3 G 4 65° 46% - - 44° 71.9° 64.4° - - -
6/21 2:50am 80 5 G 6 65° 45% - - 44° 71.9° 64.6° - - -
6/21 2:40am 76 5 G 6 66° 45% - - 44° 71.9° 64.6° - - -
6/21 2:30am 78 2 G 4 66° 46% - - 44° 71.9° 64.6° - - -
6/21 2:20am 102 3 G 4 66° 45% - - 44° 71.9° 64.6° - - -
6/21 2:10am 89 3 G 5 66° 45% - - 45° 71.9° 64.6° - - -
6/21 2:00am 78 5 G 8 65° 47% - - 44° 71.9° 64.6° - - -
6/21 1:50am 87 5 G 7 68° 41% - - 44° 71.9° 66.4° - - -
6/21 1:40am 75 4 G 5 69° 41% - - 44° 71.9° 67.2° - - -
6/21 1:30am 72 3 G 4 68° 42% - - 44° 71.9° 67.2° - - -
6/21 1:20am 83 4 G 4 68° 43% - - 44° 71.9° 67.2° - - -
6/21 1:10am 103 3 G 5 68° 42% - - 44° 71.9° 67.7° - - -
6/21 1:00am 94 2 G 4 69° 41% - - 44° 71.9° 68.5° - - -
6/21 12:50am 109 2 G 4 70° 39% - - 44° 71.9° 68.9° - - -
6/21 12:40am 81 2 G 3 70° 38% - - 44° 71.9° 70° - - -
6/21 12:30am 83 4 G 5 71° 38% - - 44° 71.9° 70.1° - - -
6/21 12:20am 88 4 G 6 71° 37% - - 44° 71.9° 70.3° - - -
6/21 12:10am 92 3 G 4 72° 36% - - 43° 71.9° 71° - - -
6/21 12:00am 103 3 G 3 72° 35% - - 43° 101.1° 59.7° - - -
6/20 11:50pm 116 3 G 4 72° 34% - - 43° 101.1° 59.7° - - -
6/20 11:40pm 99 3 G 4 72° 34% - - 43° 101.1° 59.7° - - -
6/20 11:30pm 86 5 G 7 72° 35% - - 43° 101.1° 59.7° - - -
6/20 11:20pm 84 5 G 6 73° 34% - - 43° 101.1° 59.7° - - -
6/20 11:10pm 80 5 G 6 72° 34% - - 43° 101.1° 59.7° - - -
6/20 11:00pm 89 4 G 5 74° 32% - - 42° 101.1° 59.7° - - -
6/20 10:50pm 111 3 G 4 74° 31% - - 42° 101.1° 59.7° - - -
6/20 10:40pm 108 3 G 4 74° 31% - - 42° 101.1° 59.7° - - -
6/20 10:30pm 86 5 G 6 74° 35% - - 44° 101.1° 59.7° - - -
6/20 10:20pm 84 4 G 6 75° 33% - - 44° 101.1° 59.7° - - -
6/20 10:10pm 85 5 G 6 76° 33% - - 44° 101.1° 59.7° - - -
6/20 10:00pm 98 4 G 6 76° 34% - - 46° 101.1° 59.7° - - -
6/20 9:50pm 82 3 G 5 77° 33% - - 46° 101.1° 59.7° - - -
6/20 9:40pm 106 4 G 5 78° 32% - - 46° 101.1° 59.7° - - -
6/20 9:30pm 115 4 G 6 79° 30% - - 45° 101.1° 59.7° - - -
6/20 9:20pm 136 4 G 6 79° 32% - - 46° 101.1° 59.7° - - -
6/20 9:10pm 164 5 G 7 80° 31% - - 46° 101.1° 59.7° - - -
6/20 9:00pm 186 7 G 9 82° 28% - - 46° 101.1° 59.7° - - -
6/20 8:50pm 220 7 G 8 83° 26% - - 45° 101.1° 59.7° - - -
6/20 8:40pm 225 7 G 8 82° 28% - - 46° 101.1° 59.7° - - -
6/20 8:30pm 227 6 G 8 82° 28% - - 46° 101.1° 59.7° - - -
6/20 8:20pm 231 7 G 8 83° 28% - - 46° 101.1° 59.7° - - -
6/20 8:10pm 235 5 G 7 83° 27% - - 46° 101.1° 59.7° - - -
6/20 8:00pm 234 7 G 9 84° 26% - - 46° 101.1° 59.7° - - -
6/20 7:50pm 235 8 G 10 85° 26% - - 46° 101.1° 59.7° - - -
6/20 7:40pm 233 8 G 10 86° 25% - - 46° 101.1° 59.7° - - -
6/20 7:30pm 235 10 G 13 88° 23% - - 46° 101.1° 59.7° - - -
6/20 7:20pm 235 10 G 14 88° 22% - - 45° 101.1° 59.7° - - -
6/20 7:10pm 240 11 G 15 89° 22% - - 45° 101.1° 59.7° - - -
6/20 7:00pm 243 13 G 17 89° 22% - - 45° 101.1° 59.7° - - -
6/20 6:50pm 243 12 G 17 90° 21% - - 45° 101.1° 59.7° - - -
6/20 6:40pm 241 12 G 17 91° 20% - - 44° 101.1° 59.7° - - -
6/20 6:30pm 235 10 G 17 91° 20% - - 45° 101.1° 59.7° - - -
6/20 6:20pm 237 12 G 15 92° 19% - - 44° 101.1° 59.7° - - -
6/20 6:10pm 241 13 G 16 92° 19% - - 43° 101.1° 59.7° - - -
6/20 6:00pm 247 13 G 18 93° 19% - - 44° 101.1° 59.7° - - -